createdAt,value
2022-08-14T00:00:07.822Z,1
2022-08-14T00:05:11.877Z,1
2022-08-14T00:10:52.071Z,1
2022-08-14T00:15:09.239Z,1
2022-08-14T00:20:08.027Z,1
2022-08-14T00:25:07.737Z,1
2022-08-14T00:30:08.434Z,1
2022-08-14T00:35:07.696Z,1
2022-08-14T00:40:19.174Z,1
2022-08-14T00:45:08.318Z,1
2022-08-14T00:50:08.111Z,1
2022-08-14T00:55:08.395Z,1
2022-08-14T01:00:08.639Z,1
2022-08-14T01:05:08.257Z,1
2022-08-14T01:10:07.951Z,1
2022-08-14T01:15:09.445Z,1
2022-08-14T01:20:08.573Z,1
2022-08-14T01:25:08.557Z,1
2022-08-14T01:30:08.233Z,1
2022-08-14T01:35:18.200Z,1
2022-08-14T01:40:08.127Z,1
2022-08-14T01:45:07.845Z,1
2022-08-14T01:50:08.231Z,1
2022-08-14T01:55:07.881Z,1
2022-08-14T02:00:07.747Z,1
2022-08-14T02:05:07.674Z,1
2022-08-14T02:10:08.343Z,1
2022-08-14T02:15:08.058Z,1
2022-08-14T02:20:07.877Z,1
2022-08-14T02:25:08.745Z,1
2022-08-14T02:30:08.504Z,1
2022-08-14T02:35:08.201Z,1
2022-08-14T02:40:08.121Z,1
2022-08-14T02:45:08.516Z,1
2022-08-14T02:50:08.259Z,1
2022-08-14T02:55:07.973Z,1
2022-08-14T03:00:09.905Z,1
2022-08-14T03:05:07.974Z,1
2022-08-14T03:10:28.260Z,1
2022-08-14T03:15:08.191Z,1
2022-08-14T03:20:11.217Z,1
2022-08-14T03:25:07.805Z,1
2022-08-14T03:30:14.286Z,2
2022-08-14T03:35:08.866Z,2
2022-08-14T03:40:11.313Z,2
2022-08-14T03:45:18.634Z,2
2022-08-14T03:50:08.251Z,8
2022-08-14T03:55:08.473Z,8
2022-08-14T04:00:08.001Z,37
2022-08-14T04:05:12.220Z,37
2022-08-14T04:10:02.800Z,70
2022-08-14T04:15:02.768Z,70
2022-08-14T04:20:02.634Z,274
2022-08-14T04:25:05.116Z,274
2022-08-14T04:30:02.345Z,532
2022-08-14T04:35:07.220Z,532
2022-08-14T04:40:03.125Z,703
2022-08-14T04:45:02.213Z,703
2022-08-14T04:50:03.348Z,1000
2022-08-14T04:55:02.013Z,1000
2022-08-14T05:00:02.372Z,1000
2022-08-14T05:05:02.328Z,1000
2022-08-14T05:10:13.286Z,1000
2022-08-14T05:15:02.575Z,1000
2022-08-14T05:21:04.295Z,1000
2022-08-14T05:25:02.323Z,2000
2022-08-14T05:30:02.140Z,2000
2022-08-14T05:35:02.001Z,2000
2022-08-14T05:40:01.911Z,2000
2022-08-14T05:45:02.487Z,2000
2022-08-14T05:50:02.088Z,3000
2022-08-14T05:55:01.938Z,3000
2022-08-14T06:00:02.432Z,3000
2022-08-14T06:05:02.305Z,3000
2022-08-14T06:10:04.152Z,3000
2022-08-14T06:15:02.188Z,3000
2022-08-14T06:20:02.032Z,4000
2022-08-14T06:25:02.451Z,4000
2022-08-14T06:30:02.527Z,4000
2022-08-14T06:35:12.499Z,4000
2022-08-14T06:40:02.170Z,4000
2022-08-14T06:45:02.763Z,4000
2022-08-14T06:50:01.772Z,4000
2022-08-14T06:55:01.797Z,4000
2022-08-14T07:00:02.677Z,4000
2022-08-14T07:05:05.241Z,4000
2022-08-14T07:10:02.480Z,4000
2022-08-14T07:15:02.427Z,4000
2022-08-14T07:20:01.852Z,5000
2022-08-14T07:25:02.756Z,5000
2022-08-14T07:30:02.824Z,5000
2022-08-14T07:35:02.946Z,5000
2022-08-14T07:40:01.955Z,5000
2022-08-14T07:45:02.027Z,5000
2022-08-14T07:50:02.040Z,6000
2022-08-14T07:55:01.897Z,6000
2022-08-14T08:00:02.717Z,6000
2022-08-14T08:05:02.593Z,6000
2022-08-14T08:10:02.590Z,65000
2022-08-14T08:15:05.621Z,67000
2022-08-14T08:20:02.048Z,67000
2022-08-14T08:25:01.847Z,70000
2022-08-14T08:30:02.605Z,70000
2022-08-14T08:35:02.471Z,72000
2022-08-14T08:40:04.187Z,74000
2022-08-14T08:45:01.809Z,74000
2022-08-14T08:50:01.832Z,75000
2022-08-14T08:55:04.942Z,75000
2022-08-14T09:00:02.547Z,76000
2022-08-14T09:05:01.956Z,76000
2022-08-14T09:10:01.790Z,78000
2022-08-14T09:15:02.541Z,78000
2022-08-14T09:20:04.055Z,79000
2022-08-14T09:25:02.173Z,78000
2022-08-14T09:30:02.070Z,80000
2022-08-14T09:35:02.166Z,80000
2022-08-14T09:40:02.150Z,80000
2022-08-14T09:45:08.389Z,80000
2022-08-14T09:50:01.880Z,80000
2022-08-14T09:55:03.132Z,81000
2022-08-14T10:00:02.619Z,81000
2022-08-14T10:05:02.222Z,81000
2022-08-14T10:10:02.511Z,81000
2022-08-14T10:15:02.620Z,83000
2022-08-14T10:20:02.917Z,82000
2022-08-14T10:25:02.820Z,82000
2022-08-14T10:30:02.860Z,82000
2022-08-14T10:35:02.003Z,85000
2022-08-14T10:40:05.614Z,84000
2022-08-14T10:45:02.605Z,84000
2022-08-14T10:50:02.090Z,84000
2022-08-14T10:55:02.068Z,83000
2022-08-14T11:00:02.420Z,83000
2022-08-14T11:05:04.908Z,85000
2022-08-14T11:10:01.982Z,85000
2022-08-14T11:15:02.909Z,84000
2022-08-14T11:20:01.925Z,83000
2022-08-14T11:25:02.464Z,83000
2022-08-14T11:30:49.978Z,84000
2022-08-14T11:35:02.578Z,84000
2022-08-14T11:40:02.468Z,84000
2022-08-14T11:45:02.307Z,82000
2022-08-14T11:50:02.054Z,82000
2022-08-14T11:55:01.878Z,83000
2022-08-14T12:00:01.970Z,83000
2022-08-14T12:05:03.955Z,83000
2022-08-14T12:10:26.691Z,83000
2022-08-14T12:15:01.987Z,82000
2022-08-14T12:20:03.050Z,82000
2022-08-14T12:25:04.983Z,81000
2022-08-14T12:30:02.421Z,81000
2022-08-14T12:35:02.317Z,82000
2022-08-14T12:40:02.592Z,81000
2022-08-14T12:45:04.170Z,83000
2022-08-14T12:50:02.374Z,79000
2022-08-14T12:55:06.585Z,79000
2022-08-14T13:00:02.112Z,78000
2022-08-14T13:05:02.015Z,78000
2022-08-14T13:10:34.351Z,75000
2022-08-14T13:15:01.754Z,75000
2022-08-14T13:20:01.997Z,73000
2022-08-14T13:25:02.132Z,73000
2022-08-14T13:30:01.841Z,74000
2022-08-14T13:35:02.125Z,70000
2022-08-14T13:40:02.252Z,71000
2022-08-14T13:45:01.964Z,71000
2022-08-14T13:50:01.869Z,68000
2022-08-14T13:55:02.650Z,67000
2022-08-14T14:00:01.885Z,67000
2022-08-14T14:05:02.194Z,63000
2022-08-14T14:10:06.167Z,62000
2022-08-14T14:15:04.955Z,8000
2022-08-14T14:20:03.096Z,9000
2022-08-14T14:25:02.454Z,9000
2022-08-14T14:30:03.494Z,60000
2022-08-14T14:35:01.812Z,60000
2022-08-14T14:40:50.691Z,10000
2022-08-14T14:45:02.652Z,10000
2022-08-14T14:50:02.757Z,10000
2022-08-14T14:55:02.563Z,15000
2022-08-14T15:00:01.776Z,52000
2022-08-14T15:05:02.651Z,53000
2022-08-14T15:10:02.464Z,53000
2022-08-14T15:15:09.016Z,53000
2022-08-14T15:20:02.182Z,14000
2022-08-14T15:25:02.152Z,11000
2022-08-14T15:30:02.290Z,11000
2022-08-14T15:35:02.656Z,38000
2022-08-14T15:40:02.651Z,14000
2022-08-14T15:45:02.571Z,41000
2022-08-14T15:50:02.521Z,40000
2022-08-14T15:55:01.807Z,40000
2022-08-14T16:00:01.984Z,30000
2022-08-14T16:05:01.832Z,30000
2022-08-14T16:10:27.550Z,20000
2022-08-14T16:15:02.311Z,20000
2022-08-14T16:20:02.200Z,15000
2022-08-14T16:25:03.352Z,15000
2022-08-14T16:30:04.052Z,10000
2022-08-14T16:35:02.094Z,10000
2022-08-14T16:40:02.116Z,5000
2022-08-14T16:45:02.080Z,5000
2022-08-14T16:50:03.827Z,4000
2022-08-14T16:55:02.542Z,4000
2022-08-14T17:00:07.422Z,5000
2022-08-14T17:05:02.186Z,5000
2022-08-14T17:10:09.741Z,6000
2022-08-14T17:15:10.770Z,6000
2022-08-14T17:20:01.881Z,5000
2022-08-14T17:25:03.486Z,5000
2022-08-14T17:30:01.912Z,4000
2022-08-14T17:35:02.753Z,4000
2022-08-14T17:40:02.285Z,5000
2022-08-14T17:45:02.346Z,5000
2022-08-14T17:50:02.190Z,4000
2022-08-14T17:55:02.027Z,4000
2022-08-14T18:00:02.610Z,3000
2022-08-14T18:05:03.240Z,3000
2022-08-14T18:10:52.705Z,2000
2022-08-14T18:15:06.724Z,2000
2022-08-14T18:20:02.704Z,1000
2022-08-14T18:25:02.608Z,1000
2022-08-14T18:30:31.747Z,1000
2022-08-14T18:35:13.302Z,1000
2022-08-14T18:40:04.806Z,704
2022-08-14T18:45:12.503Z,704
2022-08-14T18:50:02.681Z,385
2022-08-14T18:55:02.584Z,385
2022-08-14T19:00:02.480Z,100
2022-08-14T19:05:02.684Z,100
2022-08-14T19:10:03.455Z,58
2022-08-14T19:15:02.305Z,58
2022-08-14T19:20:02.141Z,24
2022-08-14T19:25:04.986Z,13
2022-08-14T19:30:02.483Z,13
2022-08-14T19:35:02.598Z,3
2022-08-14T19:40:15.107Z,3
2022-08-14T19:45:02.442Z,1
2022-08-14T19:50:24.414Z,1
2022-08-14T19:55:01.968Z,1
2022-08-14T20:00:02.182Z,1
2022-08-14T20:05:03.608Z,1
2022-08-14T20:11:03.333Z,1
2022-08-14T20:15:02.653Z,1
2022-08-14T20:20:02.503Z,1
2022-08-14T20:25:02.609Z,1
2022-08-14T20:30:28.300Z,1
2022-08-14T20:35:01.794Z,1
2022-08-14T20:40:02.124Z,1
2022-08-14T20:45:13.390Z,1
2022-08-14T20:50:10.294Z,1
2022-08-14T20:55:02.050Z,1
2022-08-14T21:00:02.000Z,1
2022-08-14T21:05:02.311Z,1
2022-08-14T21:10:06.479Z,1
2022-08-14T21:15:02.275Z,1
2022-08-14T21:20:25.645Z,1
2022-08-14T21:25:07.432Z,1
2022-08-14T21:30:02.589Z,1
2022-08-14T21:35:15.185Z,1
2022-08-14T21:40:33.218Z,1
2022-08-14T21:45:08.008Z,1
2022-08-14T21:50:38.773Z,1
2022-08-14T21:55:10.035Z,1
2022-08-14T22:00:35.391Z,1
2022-08-14T22:05:08.053Z,1
2022-08-14T22:10:07.773Z,1
2022-08-14T22:15:10.201Z,1
2022-08-14T22:20:07.965Z,1
2022-08-14T22:25:07.620Z,1
2022-08-14T22:30:08.365Z,1
2022-08-14T22:35:09.231Z,1
2022-08-14T22:40:17.645Z,1
2022-08-14T22:45:07.913Z,1
2022-08-14T22:50:31.396Z,1
2022-08-14T22:55:08.205Z,1
2022-08-14T23:01:00.342Z,1
2022-08-14T23:05:08.055Z,1
2022-08-14T23:10:32.942Z,1
2022-08-14T23:15:07.894Z,1
2022-08-14T23:20:08.550Z,1
2022-08-14T23:25:08.158Z,1
2022-08-14T23:30:07.900Z,1
2022-08-14T23:35:08.066Z,1
2022-08-14T23:40:20.677Z,1
2022-08-14T23:45:08.051Z,1
2022-08-14T23:50:34.152Z,1
2022-08-14T23:55:11.510Z,1
